Time;durP1;ratioP1;P1;durP2;ratioP2;P2;SDS_P1;SDS_P2;PMS_P1;PMS_P2;Temp;Humidity;BMP_temperature;BMP_pressure;BME280_temperature;BME280_humidity;BME280_pressure;Samples;Min_cycle;Max_cycle;Signal;HPM_P1;HPM_P2
2023/04/09 00:01:25;;;;;;;26.60;18.53;;;4.90;99.90;;;;;;5041703;28;20186;-72
2023/04/09 00:03:50;;;;;;;30.83;19.97;;;4.80;99.90;;;;;;5040542;28;20229;-72
2023/04/09 00:06:16;;;;;;;30.90;21.23;;;4.90;99.90;;;;;;5042145;28;20653;-71
2023/04/09 00:08:41;;;;;;;32.10;18.73;;;4.90;99.90;;;;;;5038209;28;20172;-72
2023/04/09 00:11:07;;;;;;;29.60;19.40;;;5.00;99.90;;;;;;5036526;28;20186;-71
2023/04/09 00:13:32;;;;;;;30.00;19.47;;;4.90;99.90;;;;;;5040086;28;20196;-72
2023/04/09 00:15:58;;;;;;;29.63;20.27;;;4.80;99.90;;;;;;5042119;28;20397;-72
2023/04/09 00:18:24;;;;;;;34.47;21.30;;;4.80;99.90;;;;;;5035344;28;20186;-72
2023/04/09 00:20:49;;;;;;;35.13;21.93;;;4.80;99.90;;;;;;5045599;28;20265;-72
2023/04/09 00:23:15;;;;;;;33.87;21.13;;;5.00;99.90;;;;;;5032749;28;20198;-72
2023/04/09 00:25:40;;;;;;;36.53;20.20;;;5.30;99.90;;;;;;5045379;28;20616;-71
2023/04/09 00:28:06;;;;;;;33.23;20.67;;;5.30;99.90;;;;;;5038552;28;20615;-71
2023/04/09 00:30:32;;;;;;;32.23;18.43;;;5.30;99.90;;;;;;5040124;28;20258;-71
2023/04/09 00:32:57;;;;;;;35.53;20.70;;;5.20;99.90;;;;;;5043809;28;20441;-71
2023/04/09 00:35:24;;;;;;;32.00;19.37;;;5.00;99.90;;;;;;5038553;28;20184;-71
2023/04/09 00:37:49;;;;;;;32.80;21.03;;;4.90;99.90;;;;;;5045763;28;20196;-71
2023/04/09 00:40:15;;;;;;;33.37;19.03;;;4.80;99.90;;;;;;5038426;28;20441;-70
2023/04/09 00:42:40;;;;;;;28.97;20.83;;;4.70;99.90;;;;;;5032830;28;20184;-69
2023/04/09 00:45:07;;;;;;;30.30;18.37;;;4.70;99.90;;;;;;5041457;28;20226;-72
2023/04/09 00:47:34;;;;;;;33.83;22.17;;;4.70;99.90;;;;;;5031900;28;20207;-71
2023/04/09 00:50:01;;;;;;;35.93;21.73;;;4.70;99.90;;;;;;5034927;28;20448;-71
2023/04/09 00:52:29;;;;;;;34.43;21.57;;;4.60;99.90;;;;;;5032985;28;20505;-71
2023/04/09 00:54:55;;;;;;;35.17;21.10;;;4.60;99.90;;;;;;5038465;28;20450;-72
2023/04/09 00:57:20;;;;;;;33.80;21.63;;;4.60;99.90;;;;;;5038771;28;20410;-72
2023/04/09 00:59:46;;;;;;;36.37;22.60;;;4.50;99.90;;;;;;5034482;28;20410;-71
2023/04/09 01:02:12;;;;;;;33.13;20.67;;;4.50;99.90;;;;;;5041758;28;20190;-71
2023/04/09 01:04:40;;;;;;;34.93;20.17;;;4.50;99.90;;;;;;5040157;28;20208;-72
2023/04/09 01:07:12;;;;;;;29.77;19.37;;;4.50;99.90;;;;;;5043096;28;20256;-71
2023/04/09 01:09:46;;;;;;;29.60;20.53;;;4.40;99.90;;;;;;5038437;28;20837;-72
2023/04/09 01:13:02;;;;;;;32.70;20.50;;;4.40;99.90;;;;;;5037881;28;20453;-71
2023/04/09 01:15:32;;;;;;;38.23;21.53;;;4.40;99.90;;;;;;5002358;28;20431;-70
2023/04/09 01:18:14;;;;;;;33.30;20.60;;;4.40;99.90;;;;;;4997992;28;20415;-71
2023/04/09 01:20:56;;;;;;;29.37;18.20;;;4.40;99.90;;;;;;5030259;28;20500;-71
2023/04/09 01:23:28;;;;;;;32.03;18.63;;;4.40;99.90;;;;;;5039206;28;20480;-71
2023/04/09 01:25:57;;;;;;;28.77;19.37;;;4.40;99.90;;;;;;5031758;28;20414;-71
2023/04/09 01:28:38;;;;;;;32.80;22.43;;;4.40;99.90;;;;;;5041791;28;20454;-72
2023/04/09 01:31:10;;;;;;;33.00;20.77;;;4.40;99.90;;;;;;5033045;28;20443;-71
2023/04/09 01:33:37;;;;;;;32.17;21.77;;;4.40;99.90;;;;;;5036924;28;20556;-71
2023/04/09 01:36:04;;;;;;;30.40;19.80;;;4.40;99.90;;;;;;5043857;28;20475;-70
2023/04/09 01:38:30;;;;;;;36.67;22.87;;;4.30;99.90;;;;;;5041235;28;20415;-71
2023/04/09 01:40:58;;;;;;;31.87;19.43;;;4.30;99.90;;;;;;5040369;28;20425;-69
2023/04/09 01:43:26;;;;;;;30.90;19.20;;;4.30;99.90;;;;;;5036688;28;20480;-71
2023/04/09 01:45:53;;;;;;;31.23;18.13;;;4.30;99.90;;;;;;5044825;28;20462;-71
2023/04/09 01:48:19;;;;;;;32.13;18.83;;;4.20;99.90;;;;;;5043960;28;20501;-71
2023/04/09 01:50:46;;;;;;;29.97;19.23;;;4.20;99.90;;;;;;5041245;28;20455;-71
2023/04/09 01:53:12;;;;;;;27.87;19.27;;;4.20;99.90;;;;;;5037804;28;20460;-71
2023/04/09 01:55:38;;;;;;;33.03;19.83;;;4.20;99.90;;;;;;5041252;28;20467;-71
2023/04/09 01:58:04;;;;;;;40.57;20.47;;;4.10;99.90;;;;;;5032965;28;20492;-71
2023/04/09 02:00:35;;;;;;;27.30;18.40;;;4.10;99.90;;;;;;5042010;28;20798;-72
2023/04/09 02:03:05;;;;;;;31.40;22.13;;;4.10;99.90;;;;;;5044722;28;20656;-72
2023/04/09 02:05:36;;;;;;;29.87;18.03;;;4.20;99.90;;;;;;5039286;28;20407;-70
2023/04/09 02:08:03;;;;;;;26.73;19.67;;;4.10;99.90;;;;;;5039908;28;20422;-71
2023/04/09 02:10:32;;;;;;;30.57;19.97;;;4.30;99.90;;;;;;5042242;28;20403;-70
2023/04/09 02:12:59;;;;;;;34.60;20.10;;;4.20;99.90;;;;;;5044833;28;20470;-70
2023/04/09 02:15:27;;;;;;;34.50;20.20;;;4.30;99.90;;;;;;5042482;28;20417;-70
2023/04/09 02:17:53;;;;;;;33.67;21.27;;;4.20;99.90;;;;;;5044958;28;20488;-71
2023/04/09 02:20:19;;;;;;;28.43;18.50;;;4.20;99.90;;;;;;5045045;28;20497;-71
2023/04/09 02:22:45;;;;;;;31.83;20.90;;;4.20;99.90;;;;;;5033791;28;20237;-72
2023/04/09 02:25:11;;;;;;;30.57;20.33;;;4.10;99.90;;;;;;5037058;28;20492;-71
2023/04/09 02:27:36;;;;;;;31.03;19.27;;;4.10;99.90;;;;;;5044183;28;20832;-72
2023/04/09 02:30:03;;;;;;;32.07;21.40;;;4.20;99.90;;;;;;5044922;28;20175;-71
2023/04/09 02:32:28;;;;;;;35.20;20.07;;;4.10;99.90;;;;;;5043668;28;20596;-71
2023/04/09 02:34:54;;;;;;;32.87;19.83;;;4.10;99.90;;;;;;5036713;28;20441;-70
2023/04/09 02:37:20;;;;;;;28.63;17.27;;;4.00;99.90;;;;;;5043903;28;20179;-69
2023/04/09 02:39:45;;;;;;;32.57;20.13;;;4.00;99.90;;;;;;5040541;28;20259;-70
2023/04/09 02:42:11;;;;;;;30.50;20.13;;;4.00;99.90;;;;;;5038708;28;20179;-71
2023/04/09 02:44:36;;;;;;;37.33;21.33;;;3.90;99.90;;;;;;5034243;28;20301;-70
2023/04/09 02:47:02;;;;;;;28.77;17.47;;;3.90;99.90;;;;;;5038761;28;20176;-70
2023/04/09 02:49:27;;;;;;;31.80;19.63;;;4.00;99.90;;;;;;5044562;28;20179;-70
2023/04/09 02:51:53;;;;;;;33.73;19.40;;;4.00;99.90;;;;;;5042214;28;20625;-70
2023/04/09 02:54:19;;;;;;;30.63;20.17;;;3.90;99.90;;;;;;5035553;28;20730;-71
2023/04/09 02:56:44;;;;;;;31.27;20.33;;;3.90;99.90;;;;;;5034470;28;20241;-69
2023/04/09 02:59:10;;;;;;;36.17;22.53;;;3.90;99.90;;;;;;5044322;28;20536;-71
2023/04/09 03:01:35;;;;;;;37.13;19.97;;;4.00;99.90;;;;;;5040280;28;20256;-71
2023/04/09 03:04:01;;;;;;;29.63;20.27;;;4.10;99.90;;;;;;5037313;28;20199;-70
2023/04/09 03:06:27;;;;;;;38.67;22.87;;;4.20;99.90;;;;;;5044343;28;20595;-70
2023/04/09 03:08:52;;;;;;;32.73;22.03;;;4.20;99.90;;;;;;5035736;28;20175;-70
2023/04/09 03:11:18;;;;;;;34.40;22.20;;;4.10;99.90;;;;;;5035819;28;20422;-71
2023/04/09 03:13:44;;;;;;;34.93;22.50;;;4.20;99.90;;;;;;5042379;28;20206;-70
2023/04/09 03:16:09;;;;;;;40.10;23.20;;;4.00;99.90;;;;;;5037536;28;20183;-70
2023/04/09 03:18:35;;;;;;;35.47;21.63;;;3.90;99.90;;;;;;5043562;28;20232;-70
2023/04/09 03:21:08;;;;;;;35.57;21.10;;;3.80;99.90;;;;;;5032702;28;20174;-69
2023/04/09 03:23:34;;;;;;;31.70;20.70;;;3.70;99.90;;;;;;5039602;28;20293;-71
2023/04/09 03:26:03;;;;;;;32.53;18.23;;;3.60;99.90;;;;;;5039416;28;20576;-70
2023/04/09 03:28:29;;;;;;;34.90;21.80;;;3.40;99.90;;;;;;5040208;28;20422;-70
2023/04/09 03:30:55;;;;;;;35.27;20.37;;;3.40;99.90;;;;;;5045162;28;20983;-70
2023/04/09 03:33:20;;;;;;;31.87;20.70;;;3.30;99.90;;;;;;5032922;28;20208;-69
2023/04/09 03:35:46;;;;;;;36.50;20.40;;;3.30;99.90;;;;;;5046826;28;20222;-70
2023/04/09 03:38:11;;;;;;;30.60;19.70;;;3.30;99.90;;;;;;5033062;28;20172;-70
2023/04/09 03:40:37;;;;;;;36.70;21.50;;;3.30;99.90;;;;;;5041150;28;20712;-70
2023/04/09 03:43:03;;;;;;;29.47;18.80;;;3.30;99.90;;;;;;5042912;28;20191;-71
2023/04/09 03:45:28;;;;;;;31.97;20.37;;;3.20;99.90;;;;;;5039776;28;20305;-72
2023/04/09 03:47:54;;;;;;;33.67;18.80;;;3.40;99.90;;;;;;5044889;28;20190;-72
2023/04/09 03:50:20;;;;;;;38.87;19.37;;;3.30;99.90;;;;;;5039002;28;20179;-69
2023/04/09 03:52:46;;;;;;;39.00;21.47;;;3.30;99.90;;;;;;5046405;28;20221;-71
2023/04/09 03:55:11;;;;;;;32.90;18.30;;;3.30;99.90;;;;;;5038643;28;20212;-71
2023/04/09 03:57:37;;;;;;;29.43;17.20;;;3.30;99.90;;;;;;5030941;28;20179;-71
2023/04/09 04:00:03;;;;;;;32.57;18.60;;;3.20;99.90;;;;;;5038944;28;20176;-69
2023/04/09 04:02:32;;;;;;;27.70;16.27;;;3.10;99.90;;;;;;5038753;28;20209;-70
2023/04/09 04:05:00;;;;;;;27.30;18.77;;;3.10;99.90;;;;;;5034616;28;20429;-70
2023/04/09 04:07:26;;;;;;;27.03;17.57;;;3.00;99.90;;;;;;5038948;28;20415;-70
2023/04/09 04:09:52;;;;;;;27.43;17.07;;;3.10;99.90;;;;;;5045802;28;20509;-70
2023/04/09 04:12:17;;;;;;;33.27;18.20;;;3.10;99.90;;;;;;5038523;28;20203;-69
2023/04/09 04:14:43;;;;;;;30.77;17.23;;;3.20;99.90;;;;;;5038430;28;20195;-70
2023/04/09 04:17:10;;;;;;;36.10;18.70;;;3.20;99.90;;;;;;5037243;28;20234;-71
2023/04/09 04:19:36;;;;;;;30.83;17.67;;;3.30;99.90;;;;;;5040532;28;20255;-70
2023/04/09 04:22:01;;;;;;;36.83;18.90;;;3.30;99.90;;;;;;5036614;28;20933;-69
2023/04/09 04:24:27;;;;;;;35.47;19.33;;;3.30;99.90;;;;;;5030193;28;20206;-69
2023/04/09 04:26:52;;;;;;;34.37;19.40;;;3.40;99.90;;;;;;5037755;28;20592;-68
2023/04/09 04:29:18;;;;;;;29.63;17.90;;;3.50;99.90;;;;;;5034081;28;20293;-69
2023/04/09 04:31:44;;;;;;;27.93;18.17;;;3.50;99.90;;;;;;5041232;28;20226;-69
2023/04/09 04:34:09;;;;;;;36.40;18.50;;;3.50;99.90;;;;;;5035240;28;20203;-69
2023/04/09 04:36:36;;;;;;;66.93;20.80;;;3.50;99.90;;;;;;5035233;28;20176;-69
2023/04/09 04:39:01;;;;;;;34.43;20.23;;;3.60;99.90;;;;;;5041776;28;20246;-70
2023/04/09 04:41:28;;;;;;;49.97;19.30;;;3.60;99.90;;;;;;5033539;28;20442;-69
2023/04/09 04:43:53;;;;;;;31.90;20.47;;;3.60;99.90;;;;;;5041858;28;20570;-71
2023/04/09 04:46:19;;;;;;;35.57;21.37;;;3.70;99.90;;;;;;5040802;28;20416;-70
2023/04/09 04:48:45;;;;;;;27.40;17.90;;;3.70;99.90;;;;;;5038553;28;20202;-70
2023/04/09 04:51:10;;;;;;;31.77;19.60;;;3.80;99.90;;;;;;5042715;28;20544;-72
2023/04/09 04:53:36;;;;;;;50.80;20.40;;;3.90;99.90;;;;;;5041747;28;20203;-70
2023/04/09 04:56:01;;;;;;;32.60;20.53;;;3.90;99.90;;;;;;5045766;28;20171;-69
2023/04/09 04:58:28;;;;;;;39.77;19.57;;;4.00;99.90;;;;;;5043265;28;20267;-70
2023/04/09 05:00:53;;;;;;;36.83;20.73;;;4.10;99.90;;;;;;5041394;28;20172;-71
2023/04/09 05:03:19;;;;;;;40.20;20.57;;;4.20;99.90;;;;;;5041763;28;20529;-70
2023/04/09 05:05:45;;;;;;;35.63;20.30;;;4.10;99.90;;;;;;5041973;28;20171;-70
2023/04/09 05:08:10;;;;;;;32.83;19.70;;;4.30;99.90;;;;;;5035943;28;20202;-69
2023/04/09 05:10:36;;;;;;;42.00;20.03;;;4.40;99.90;;;;;;5043876;28;20418;-70
2023/04/09 05:13:01;;;;;;;37.93;20.13;;;4.40;99.90;;;;;;5045312;28;20691;-71
2023/04/09 05:15:27;;;;;;;46.37;20.20;;;4.50;99.90;;;;;;5036289;28;20259;-71
2023/04/09 05:17:53;;;;;;;40.47;20.73;;;4.60;99.90;;;;;;5041422;28;20240;-70
2023/04/09 05:20:18;;;;;;;39.80;21.63;;;4.60;99.90;;;;;;5044047;28;20221;-72
2023/04/09 05:22:44;;;;;;;36.33;20.00;;;4.70;99.90;;;;;;5042836;28;20270;-71
2023/04/09 05:25:09;;;;;;;38.80;20.80;;;4.80;99.90;;;;;;5045951;28;20199;-70
2023/04/09 05:27:35;;;;;;;41.87;22.10;;;4.90;99.90;;;;;;5043341;28;20210;-71
2023/04/09 05:30:01;;;;;;;40.87;21.77;;;5.00;99.90;;;;;;5040372;28;20354;-72
2023/04/09 05:32:27;;;;;;;38.77;21.60;;;4.90;99.90;;;;;;5062592;22;20207;-67
2023/04/09 05:34:52;;;;;;;45.77;24.77;;;4.90;99.90;;;;;;5052549;28;20479;-68
2023/04/09 05:37:18;;;;;;;34.47;21.07;;;5.00;99.90;;;;;;5054093;28;20648;-68
2023/04/09 05:39:43;;;;;;;42.83;22.27;;;4.90;99.90;;;;;;5054167;28;20188;-68
2023/04/09 05:42:09;;;;;;;36.97;21.70;;;4.90;99.90;;;;;;5054059;28;20179;-69
2023/04/09 05:44:34;;;;;;;36.30;19.50;;;4.90;99.90;;;;;;5053782;28;20191;-67
2023/04/09 05:47:00;;;;;;;40.13;21.80;;;5.00;99.90;;;;;;5054022;28;20170;-68
2023/04/09 05:49:26;;;;;;;41.23;21.17;;;5.10;99.90;;;;;;5053742;28;20178;-69
2023/04/09 05:51:51;;;;;;;43.53;22.57;;;5.00;99.90;;;;;;5047882;28;20199;-69
2023/04/09 05:54:17;;;;;;;36.93;21.40;;;5.10;99.90;;;;;;5054003;28;20221;-67
2023/04/09 05:56:43;;;;;;;42.70;23.80;;;5.20;99.90;;;;;;5053835;28;20175;-69
2023/04/09 05:59:08;;;;;;;40.90;20.87;;;5.20;99.90;;;;;;5050919;28;20172;-69
2023/04/09 06:01:34;;;;;;;33.80;21.50;;;5.30;99.90;;;;;;5052421;28;20167;-70
2023/04/09 06:03:59;;;;;;;36.10;22.30;;;5.30;99.90;;;;;;5053641;28;20622;-69
2023/04/09 06:06:25;;;;;;;44.20;23.83;;;5.30;99.90;;;;;;5053421;28;20640;-69
2023/04/09 06:08:51;;;;;;;41.13;21.40;;;5.30;99.90;;;;;;5053720;28;20172;-70
2023/04/09 06:11:17;;;;;;;43.77;21.60;;;5.40;99.90;;;;;;5053554;28;20931;-69
2023/04/09 06:13:42;;;;;;;39.23;23.30;;;5.30;99.90;;;;;;5053319;28;20285;-70
2023/04/09 06:16:08;;;;;;;36.00;22.17;;;5.10;99.90;;;;;;5053418;28;20174;-68
2023/04/09 06:18:35;;;;;;;32.90;22.00;;;5.30;99.90;;;;;;5053278;28;20171;-68
2023/04/09 06:21:05;;;;;;;38.80;23.40;;;5.50;99.90;;;;;;5053479;28;20199;-69
2023/04/09 06:23:32;;;;;;;35.80;20.37;;;5.60;99.90;;;;;;5053229;28;20997;-69
2023/04/09 06:25:59;;;;;;;35.67;22.77;;;5.70;99.90;;;;;;5053171;28;20517;-69
2023/04/09 06:28:25;;;;;;;38.37;23.17;;;5.80;99.90;;;;;;5053290;28;20453;-69
2023/04/09 06:30:52;;;;;;;31.70;19.57;;;5.70;99.90;;;;;;5053365;28;20460;-68
2023/04/09 06:33:18;;;;;;;42.00;21.80;;;5.90;99.90;;;;;;5052833;28;20979;-69
2023/04/09 06:35:43;;;;;;;30.40;21.10;;;6.10;99.90;;;;;;5053114;28;20417;-70
2023/04/09 06:38:09;;;;;;;34.10;21.80;;;6.30;99.90;;;;;;5052956;28;20553;-69
2023/04/09 06:40:37;;;;;;;37.47;22.57;;;6.40;99.90;;;;;;5053111;28;20225;-69
2023/04/09 06:43:03;;;;;;;38.10;23.93;;;6.50;99.90;;;;;;5053043;28;20245;-68
2023/04/09 06:45:30;;;;;;;34.90;18.90;;;6.40;99.90;;;;;;5052849;28;20503;-69
2023/04/09 06:47:55;;;;;;;35.20;19.90;;;6.40;99.90;;;;;;5053131;28;20179;-69
2023/04/09 06:50:21;;;;;;;36.07;19.77;;;6.50;99.90;;;;;;5053457;28;20762;-69
2023/04/09 06:52:46;;;;;;;34.67;20.90;;;6.60;99.90;;;;;;5052937;28;20194;-69
2023/04/09 06:55:12;;;;;;;30.63;19.57;;;6.40;99.90;;;;;;5053764;28;20175;-70
2023/04/09 06:57:38;;;;;;;29.77;19.67;;;6.30;99.90;;;;;;5053057;28;20171;-70
2023/04/09 07:00:04;;;;;;;32.50;20.47;;;6.70;99.90;;;;;;5052802;28;20785;-70
2023/04/09 07:02:30;;;;;;;29.43;19.60;;;6.80;99.90;;;;;;5052731;28;20180;-70
2023/04/09 07:04:55;;;;;;;32.00;19.83;;;6.80;99.90;;;;;;5052828;28;20835;-69
2023/04/09 07:07:21;;;;;;;25.50;17.20;;;6.80;99.90;;;;;;5052657;28;20206;-69
2023/04/09 07:09:47;;;;;;;30.27;17.90;;;6.80;99.90;;;;;;5052636;28;20647;-69
2023/04/09 07:12:13;;;;;;;31.87;17.50;;;6.90;99.90;;;;;;5050649;28;20188;-69
2023/04/09 07:14:39;;;;;;;27.90;16.90;;;6.90;99.90;;;;;;5052182;28;20447;-69
2023/04/09 07:17:04;;;;;;;29.20;17.33;;;6.90;99.90;;;;;;5052376;28;20179;-69
2023/04/09 07:19:30;;;;;;;29.27;19.37;;;7.00;99.90;;;;;;5052711;28;20209;-69
2023/04/09 07:21:55;;;;;;;28.10;17.20;;;7.00;99.90;;;;;;5052664;28;20203;-69
2023/04/09 07:24:21;;;;;;;25.73;18.27;;;6.90;99.90;;;;;;5052357;28;20246;-70
2023/04/09 07:26:47;;;;;;;31.23;20.53;;;7.10;99.90;;;;;;5052833;28;20183;-69
2023/04/09 07:29:12;;;;;;;32.23;19.50;;;7.10;99.90;;;;;;5052249;28;20569;-69
2023/04/09 07:31:38;;;;;;;28.47;17.13;;;7.20;99.90;;;;;;5051959;28;20266;-69
2023/04/09 07:34:03;;;;;;;31.07;19.67;;;7.10;99.90;;;;;;5052078;28;20665;-70
2023/04/09 07:36:30;;;;;;;25.70;17.97;;;7.20;99.90;;;;;;5051918;28;20181;-69
2023/04/09 07:38:56;;;;;;;29.80;20.20;;;7.10;99.90;;;;;;5051857;28;20175;-70
2023/04/09 07:41:21;;;;;;;27.17;18.93;;;7.00;99.90;;;;;;5052030;28;20498;-70
2023/04/09 07:43:47;;;;;;;26.40;17.47;;;7.00;99.90;;;;;;5051857;28;20270;-69
2023/04/09 07:46:20;;;;;;;28.30;18.67;;;6.90;99.90;;;;;;5051767;28;20170;-69
2023/04/09 07:48:46;;;;;;;29.87;18.60;;;7.10;99.90;;;;;;5051974;28;20176;-70
2023/04/09 07:51:11;;;;;;;30.10;18.77;;;7.30;99.90;;;;;;5052082;28;20501;-70
2023/04/09 07:53:37;;;;;;;32.27;20.10;;;7.50;99.90;;;;;;5051682;28;20211;-71
2023/04/09 07:56:03;;;;;;;35.30;19.17;;;7.60;99.90;;;;;;5051889;28;20281;-68
2023/04/09 07:58:29;;;;;;;27.90;18.27;;;7.70;99.90;;;;;;5051517;28;20225;-67
2023/04/09 08:00:54;;;;;;;32.30;18.20;;;7.70;99.90;;;;;;5051700;28;20415;-68
2023/04/09 08:03:21;;;;;;;31.10;18.27;;;7.60;99.90;;;;;;5051882;28;20184;-67
2023/04/09 08:05:47;;;;;;;29.27;18.60;;;7.60;99.90;;;;;;5051695;28;20462;-69
2023/04/09 08:08:12;;;;;;;31.17;17.70;;;8.00;99.90;;;;;;5051469;28;20415;-69
2023/04/09 08:10:38;;;;;;;31.33;18.77;;;7.90;99.90;;;;;;5052128;28;20173;-68
2023/04/09 08:13:03;;;;;;;27.30;20.07;;;7.90;99.90;;;;;;5051836;28;20266;-69
2023/04/09 08:15:29;;;;;;;32.87;19.50;;;7.90;99.90;;;;;;5051856;28;20170;-69
2023/04/09 08:17:55;;;;;;;25.33;16.20;;;7.90;99.90;;;;;;5052001;28;20638;-68
2023/04/09 08:20:21;;;;;;;31.27;18.90;;;7.80;99.90;;;;;;5051591;28;20274;-69
2023/04/09 08:22:47;;;;;;;31.73;18.67;;;7.40;99.90;;;;;;5051232;28;20462;-68
2023/04/09 08:25:13;;;;;;;34.97;20.10;;;7.60;99.90;;;;;;5051259;28;20233;-69
2023/04/09 08:27:38;;;;;;;28.23;18.13;;;7.80;99.90;;;;;;5050950;28;20406;-69
2023/04/09 08:30:04;;;;;;;31.57;20.67;;;8.00;99.90;;;;;;5051412;28;20187;-69
2023/04/09 08:32:30;;;;;;;26.97;19.50;;;8.20;99.90;;;;;;5050932;28;20199;-69
2023/04/09 08:34:56;;;;;;;31.03;19.13;;;8.50;99.90;;;;;;5051558;28;20508;-69
2023/04/09 08:37:21;;;;;;;27.87;18.67;;;8.40;99.90;;;;;;5051246;28;20177;-68
2023/04/09 08:39:47;;;;;;;28.10;17.77;;;8.50;99.90;;;;;;5051385;28;20174;-69
2023/04/09 08:42:13;;;;;;;26.07;17.80;;;8.50;99.90;;;;;;5051138;28;20222;-69
2023/04/09 08:44:39;;;;;;;27.07;19.30;;;8.30;99.90;;;;;;5051019;28;20202;-69
2023/04/09 08:47:10;;;;;;;26.87;17.50;;;8.40;99.90;;;;;;5051560;28;20788;-68
2023/04/09 08:49:37;;;;;;;27.30;18.80;;;8.50;99.90;;;;;;5051035;28;20409;-69
2023/04/09 08:52:03;;;;;;;32.43;19.87;;;8.20;99.90;;;;;;5051213;28;20466;-68
2023/04/09 08:54:29;;;;;;;28.23;18.57;;;7.80;99.90;;;;;;5050961;28;21015;-69
2023/04/09 08:56:56;;;;;;;29.97;19.30;;;7.60;99.90;;;;;;5050897;28;20182;-69
2023/04/09 08:59:22;;;;;;;27.43;16.90;;;8.00;99.90;;;;;;5051251;28;20536;-69
2023/04/09 09:01:52;;;;;;;28.13;18.80;;;8.10;99.90;;;;;;5051602;28;20411;-69
2023/04/09 09:04:18;;;;;;;26.60;16.87;;;8.30;99.90;;;;;;5051225;28;20203;-70
2023/04/09 09:06:44;;;;;;;30.20;19.87;;;7.90;99.90;;;;;;5050637;28;20409;-69
2023/04/09 09:09:14;;;;;;;29.97;17.73;;;8.00;99.90;;;;;;5051135;28;20175;-70
2023/04/09 09:11:42;;;;;;;29.10;18.53;;;8.30;99.90;;;;;;5050806;28;20474;-69
2023/04/09 09:14:13;;;;;;;24.97;17.53;;;8.70;99.90;;;;;;5045965;28;20498;-69
2023/04/09 09:16:43;;;;;;;26.37;17.33;;;8.80;99.90;;;;;;5051054;28;20426;-70
2023/04/09 09:19:29;;;;;;;31.60;19.23;;;8.60;99.90;;;;;;5050878;28;20841;-69
2023/04/09 09:21:59;;;;;;;29.03;17.97;;;9.30;99.90;;;;;;5045674;28;20409;-69
2023/04/09 09:24:25;;;;;;;27.60;18.20;;;9.60;99.90;;;;;;5051020;28;20840;-69
2023/04/09 09:26:51;;;;;;;27.80;19.27;;;9.50;99.90;;;;;;5050662;28;20445;-69
2023/04/09 09:29:16;;;;;;;28.00;17.93;;;10.00;99.90;;;;;;5050937;28;20258;-69
2023/04/09 09:31:52;;;;;;;26.50;18.10;;;10.50;99.90;;;;;;5050775;28;20836;-69
2023/04/09 09:34:20;;;;;;;24.17;17.50;;;10.60;99.90;;;;;;5050714;28;20572;-68
2023/04/09 09:36:46;;;;;;;27.17;17.03;;;10.10;99.90;;;;;;5053970;28;20436;-68
2023/04/09 09:39:13;;;;;;;26.70;17.03;;;10.30;99.90;;;;;;5054252;28;20418;-69
2023/04/09 09:41:40;;;;;;;22.80;15.90;;;10.50;99.90;;;;;;5054412;28;20413;-70
2023/04/09 09:44:07;;;;;;;22.87;17.30;;;10.50;99.90;;;;;;5054504;28;20946;-68
2023/04/09 09:46:35;;;;;;;26.13;18.47;;;10.60;99.90;;;;;;5054117;28;20406;-69
2023/04/09 09:49:01;;;;;;;23.70;16.43;;;10.70;99.90;;;;;;5054003;28;20416;-69
2023/04/09 09:51:29;;;;;;;27.17;17.33;;;10.20;99.90;;;;;;5053934;28;20496;-69
2023/04/09 09:53:56;;;;;;;22.93;15.80;;;10.40;99.90;;;;;;5053999;28;20290;-69
2023/04/09 09:56:31;;;;;;;25.10;17.50;;;10.90;99.90;;;;;;5053838;28;20818;-69
2023/04/09 09:59:06;;;;;;;25.00;16.90;;;10.70;99.90;;;;;;5046976;28;20990;-68
2023/04/09 10:01:32;;;;;;;21.00;17.17;;;10.70;99.90;;;;;;5053574;28;20512;-70
2023/04/09 10:04:00;;;;;;;22.73;16.87;;;11.00;99.90;;;;;;5053731;28;20449;-69
2023/04/09 10:06:26;;;;;;;24.73;17.30;;;10.80;99.90;;;;;;5053361;28;20935;-69
2023/04/09 10:08:57;;;;;;;28.17;17.50;;;10.90;99.90;;;;;;5054147;28;20426;-69
2023/04/09 10:11:23;;;;;;;21.80;15.80;;;11.10;99.90;;;;;;5053841;28;20599;-69
2023/04/09 10:14:07;;;;;;;22.57;15.90;;;11.00;99.90;;;;;;5051184;28;20469;-70
2023/04/09 10:16:33;;;;;;;25.30;16.03;;;10.70;99.90;;;;;;5053949;28;20417;-69
2023/04/09 10:19:00;;;;;;;25.20;17.17;;;11.10;99.90;;;;;;5053626;28;20410;-69
2023/04/09 10:21:42;;;;;;;21.87;15.43;;;10.60;99.90;;;;;;5053645;28;20413;-69
2023/04/09 10:24:09;;;;;;;21.80;14.27;;;10.20;99.90;;;;;;5053545;28;20440;-68
2023/04/09 10:26:39;;;;;;;19.50;14.63;;;10.30;99.90;;;;;;5053156;28;20426;-69
2023/04/09 10:29:15;;;;;;;19.33;14.10;;;10.70;99.90;;;;;;5053560;28;20860;-68
2023/04/09 10:31:48;;;;;;;21.70;16.17;;;11.30;99.90;;;;;;5053391;28;20409;-69
2023/04/09 10:34:16;;;;;;;24.27;16.33;;;11.30;99.90;;;;;;5053159;28;20535;-69
2023/04/09 10:36:43;;;;;;;25.37;16.57;;;11.40;99.90;;;;;;5053089;28;20424;-69
2023/04/09 10:39:12;;;;;;;21.20;13.57;;;11.70;99.90;;;;;;5053108;28;20414;-69
2023/04/09 10:41:40;;;;;;;22.03;15.00;;;12.10;99.90;;;;;;5053470;28;20419;-69
2023/04/09 10:44:06;;;;;;;22.00;14.87;;;11.50;99.90;;;;;;5053295;28;20515;-69
2023/04/09 10:46:35;;;;;;;22.10;15.10;;;11.20;99.90;;;;;;5052133;28;20413;-69
2023/04/09 10:49:18;;;;;;;20.27;14.30;;;11.80;99.90;;;;;;5053237;28;20413;-69
2023/04/09 10:52:09;;;;;;;19.30;14.20;;;11.90;99.90;;;;;;5052321;28;20799;-69
2023/04/09 10:54:42;;;;;;;20.80;14.80;;;11.80;99.90;;;;;;5045338;28;20444;-69
2023/04/09 10:57:12;;;;;;;19.80;14.43;;;12.10;99.90;;;;;;5052919;28;20425;-69
2023/04/09 10:59:52;;;;;;;23.40;15.90;;;12.70;99.90;;;;;;5052656;28;20451;-68
2023/04/09 11:02:38;;;;;;;22.10;14.90;;;11.90;99.90;;;;;;5052912;28;20409;-69
2023/04/09 11:05:18;;;;;;;22.47;14.53;;;12.00;99.90;;;;;;5053146;28;20413;-69
2023/04/09 11:07:51;;;;;;;20.27;15.17;;;11.90;99.90;;;;;;5053861;28;20409;-70
2023/04/09 11:10:17;;;;;;;20.37;15.17;;;11.70;99.90;;;;;;5052638;28;20436;-69
2023/04/09 11:12:43;;;;;;;20.13;14.80;;;11.90;99.90;;;;;;5052503;28;20522;-69
2023/04/09 11:15:16;;;;;;;18.80;13.77;;;11.80;99.90;;;;;;5052514;28;20505;-69
2023/04/09 11:17:42;;;;;;;22.63;16.47;;;12.00;99.90;;;;;;5052523;28;20258;-69
2023/04/09 11:20:09;;;;;;;21.93;16.70;;;11.90;99.90;;;;;;5052622;28;20447;-69
2023/04/09 11:22:35;;;;;;;20.07;15.10;;;11.30;99.90;;;;;;5052323;28;20425;-69
2023/04/09 11:25:01;;;;;;;25.40;15.70;;;11.80;99.90;;;;;;5052241;28;20907;-68
2023/04/09 11:27:27;;;;;;;19.40;14.63;;;11.60;99.90;;;;;;5052207;28;20167;-69
2023/04/09 11:29:56;;;;;;;21.10;14.83;;;11.70;99.90;;;;;;5052500;28;20792;-70
2023/04/09 11:32:21;;;;;;;21.40;15.33;;;11.60;99.90;;;;;;5051971;28;20198;-70
2023/04/09 11:34:47;;;;;;;19.70;14.27;;;11.60;99.90;;;;;;5052148;28;20427;-68
2023/04/09 11:37:16;;;;;;;21.13;15.23;;;11.50;99.90;;;;;;5052258;28;20198;-69
2023/04/09 11:39:45;;;;;;;19.00;13.70;;;11.60;99.90;;;;;;5052100;28;20171;-69
2023/04/09 11:42:16;;;;;;;20.23;12.90;;;11.60;99.90;;;;;;5052107;28;20418;-70
2023/04/09 11:44:45;;;;;;;18.80;14.33;;;11.60;99.90;;;;;;5051240;28;20430;-69
2023/04/09 11:47:13;;;;;;;19.90;13.70;;;11.70;99.90;;;;;;5052059;28;20467;-69
2023/04/09 11:49:39;;;;;;;17.67;13.63;;;11.50;99.90;;;;;;5051785;28;20413;-69
2023/04/09 11:52:05;;;;;;;22.03;14.00;;;11.60;99.90;;;;;;5051812;28;20497;-69
2023/04/09 11:54:34;;;;;;;21.63;14.27;;;11.80;99.90;;;;;;5051443;28;20448;-69
2023/04/09 11:57:00;;;;;;;18.33;13.47;;;11.90;99.90;;;;;;5051914;28;20564;-69
2023/04/09 11:59:26;;;;;;;17.90;11.77;;;11.80;99.90;;;;;;5051883;28;20414;-69
2023/04/09 12:01:52;;;;;;;19.87;13.07;;;11.90;99.90;;;;;;5051854;28;20418;-69
2023/04/09 12:04:20;;;;;;;21.03;14.40;;;12.10;99.90;;;;;;5051682;28;20440;-70
2023/04/09 12:06:47;;;;;;;22.00;14.10;;;12.20;99.90;;;;;;5051534;28;20189;-69
2023/04/09 12:09:13;;;;;;;20.07;15.30;;;12.10;99.90;;;;;;5051887;28;20471;-69
2023/04/09 12:11:42;;;;;;;22.67;14.70;;;12.00;99.90;;;;;;5052286;28;20496;-69
2023/04/09 12:14:12;;;;;;;19.43;12.97;;;11.80;99.90;;;;;;5047284;28;20927;-70
2023/04/09 12:16:40;;;;;;;22.07;13.90;;;11.70;99.90;;;;;;5051608;28;20418;-70
2023/04/09 12:19:06;;;;;;;18.63;14.80;;;11.60;99.90;;;;;;5051427;28;20428;-69
2023/04/09 12:21:57;;;;;;;18.23;13.80;;;11.70;99.90;;;;;;5051450;28;20903;-69
2023/04/09 12:24:24;;;;;;;20.97;14.57;;;12.00;99.90;;;;;;5048571;28;20456;-69
2023/04/09 12:26:51;;;;;;;22.03;14.10;;;12.00;99.90;;;;;;5044304;28;20406;-69
2023/04/09 12:29:19;;;;;;;16.67;12.43;;;12.00;99.90;;;;;;5080020;22;20501;-72
2023/04/09 12:31:45;;;;;;;20.93;13.17;;;11.90;99.90;;;;;;5049748;28;20409;-72
2023/04/09 12:34:11;;;;;;;19.67;13.57;;;12.00;99.90;;;;;;5050673;28;20418;-72